createdAt,value
2017-06-19T00:00:02.837Z,1005.99
2017-06-19T00:01:09.474Z,1005.98
2017-06-19T00:02:14.340Z,1006.00
2017-06-19T00:03:16.852Z,1005.98
2017-06-19T00:04:19.510Z,1006.01
2017-06-19T00:05:22.099Z,1005.99
2017-06-19T00:06:24.697Z,1005.97
2017-06-19T00:07:27.494Z,1006.03
2017-06-19T00:08:30.208Z,1006.01
2017-06-19T00:09:32.919Z,1006.03
2017-06-19T00:10:35.635Z,1005.97
2017-06-19T00:11:38.312Z,1006.02
2017-06-19T00:12:41.065Z,1005.95
2017-06-19T00:13:43.853Z,1005.94
2017-06-19T00:14:46.596Z,1005.97
2017-06-19T00:15:49.299Z,1006.00
2017-06-19T00:16:51.839Z,1005.96
2017-06-19T00:17:54.465Z,1005.96
2017-06-19T00:18:56.970Z,1005.94
2017-06-19T00:19:59.671Z,1005.95
2017-06-19T00:21:02.457Z,1005.92
2017-06-19T00:22:05.011Z,1005.91
2017-06-19T00:23:07.560Z,1005.90
2017-06-19T00:24:10.115Z,1005.89
2017-06-19T00:25:12.725Z,1005.91
2017-06-19T00:26:15.359Z,1005.92
2017-06-19T00:27:18.026Z,1005.87
2017-06-19T00:28:20.554Z,1005.88
2017-06-19T00:29:23.152Z,1005.90
2017-06-19T00:30:25.774Z,1005.88
2017-06-19T00:31:28.384Z,1005.86
2017-06-19T00:32:31.015Z,1005.87
2017-06-19T00:33:33.716Z,1005.86
2017-06-19T00:34:36.424Z,1005.82
2017-06-19T00:35:39.124Z,1005.83
2017-06-19T00:36:41.720Z,1005.85
2017-06-19T00:37:44.370Z,1005.89
2017-06-19T00:38:47.037Z,1005.88
2017-06-19T00:39:49.714Z,1005.85
2017-06-19T00:40:52.304Z,1005.86
2017-06-19T00:41:55.171Z,1005.84
2017-06-19T00:42:57.849Z,1005.86
2017-06-19T00:44:00.503Z,1005.87
2017-06-19T00:45:03.226Z,1005.87
2017-06-19T00:46:05.709Z,1005.85
2017-06-19T00:47:08.214Z,1005.88
2017-06-19T00:48:10.876Z,1005.85
2017-06-19T00:49:13.365Z,1005.85
2017-06-19T00:50:16.217Z,1005.83
2017-06-19T00:51:18.865Z,1005.83
2017-06-19T00:52:21.712Z,1005.86
2017-06-19T00:53:24.516Z,1005.83
2017-06-19T00:54:27.444Z,1005.89
2017-06-19T00:55:30.442Z,1005.87
2017-06-19T00:56:33.115Z,1005.88
2017-06-19T00:57:35.792Z,1005.89
2017-06-19T00:58:38.336Z,1005.86
2017-06-19T00:59:41.079Z,1005.88
2017-06-19T01:00:45.650Z,1005.85
2017-06-19T01:01:53.834Z,1005.84
2017-06-19T01:02:56.011Z,1005.88
2017-06-19T01:03:58.717Z,1005.87
2017-06-19T01:05:01.408Z,1005.87
2017-06-19T01:06:04.117Z,1005.84
2017-06-19T01:07:06.732Z,1005.87
2017-06-19T01:08:09.316Z,1005.88
2017-06-19T01:09:12.139Z,1005.82
2017-06-19T01:10:14.777Z,1005.85
2017-06-19T01:11:17.358Z,1005.78
2017-06-19T01:12:19.969Z,1005.80
2017-06-19T01:13:22.571Z,1005.79
2017-06-19T01:14:25.178Z,1005.79
2017-06-19T01:15:27.905Z,1005.81
2017-06-19T01:16:30.566Z,1005.79
2017-06-19T01:17:33.154Z,1005.77
2017-06-19T01:18:35.827Z,1005.79
2017-06-19T01:19:38.471Z,1005.77
2017-06-19T01:20:41.073Z,1005.79
2017-06-19T01:21:43.686Z,1005.76
2017-06-19T01:22:46.239Z,1005.81
2017-06-19T01:23:48.841Z,1005.74
2017-06-19T01:24:51.455Z,1005.77
2017-06-19T01:25:53.985Z,1005.74
2017-06-19T01:26:56.508Z,1005.70
2017-06-19T01:27:59.102Z,1005.68
2017-06-19T01:29:01.590Z,1005.67
2017-06-19T01:30:04.196Z,1005.67
2017-06-19T01:31:06.881Z,1005.64
2017-06-19T01:32:09.550Z,1005.63
2017-06-19T01:33:12.246Z,1005.65
2017-06-19T01:34:14.947Z,1005.60
2017-06-19T01:35:17.668Z,1005.60
2017-06-19T01:36:20.201Z,1005.61
2017-06-19T01:37:22.817Z,1005.60
2017-06-19T01:38:25.349Z,1005.59
2017-06-19T01:39:27.943Z,1005.58
2017-06-19T01:40:30.526Z,1005.56
2017-06-19T01:41:33.011Z,1005.57
2017-06-19T01:42:35.503Z,1005.55
2017-06-19T01:43:38.102Z,1005.56
2017-06-19T01:44:40.676Z,1005.56
2017-06-19T01:45:43.260Z,1005.55
2017-06-19T01:46:45.828Z,1005.53
2017-06-19T01:47:48.369Z,1005.53
2017-06-19T01:48:51.086Z,1005.54
2017-06-19T01:49:53.754Z,1005.49
2017-06-19T01:50:56.429Z,1005.48
2017-06-19T01:51:59.099Z,1005.45
2017-06-19T01:53:01.781Z,1005.43
2017-06-19T01:54:05.032Z,1005.47
2017-06-19T01:55:07.726Z,1005.44
2017-06-19T01:56:10.395Z,1005.42
2017-06-19T01:57:13.083Z,1005.42
2017-06-19T01:58:15.716Z,1005.39
2017-06-19T01:59:18.328Z,1005.41
2017-06-19T02:00:24.254Z,1005.40
2017-06-19T02:01:31.288Z,1005.37
2017-06-19T02:02:33.715Z,1005.36
2017-06-19T02:03:36.287Z,1005.36
2017-06-19T02:04:38.869Z,1005.36
2017-06-19T02:05:41.530Z,1005.34
2017-06-19T02:06:44.133Z,1005.32
2017-06-19T02:07:46.807Z,1005.30
2017-06-19T02:08:52.209Z,1005.24
2017-06-19T02:09:54.684Z,1005.23
2017-06-19T02:10:57.198Z,1005.27
2017-06-19T02:11:59.811Z,1005.25
2017-06-19T02:13:02.285Z,1005.25
2017-06-19T02:14:04.917Z,1005.25
2017-06-19T02:15:07.537Z,1005.27
2017-06-19T02:16:10.066Z,1005.24
2017-06-19T02:17:12.604Z,1005.24
2017-06-19T02:18:15.310Z,1005.28
2017-06-19T02:19:19.530Z,1005.29
2017-06-19T02:20:22.783Z,1005.27
2017-06-19T02:21:25.875Z,1005.26
2017-06-19T02:22:28.606Z,1005.28
2017-06-19T02:23:31.314Z,1005.26
2017-06-19T02:24:33.895Z,1005.25
2017-06-19T02:25:36.611Z,1005.29
2017-06-19T02:26:39.223Z,1005.26
2017-06-19T02:27:42.089Z,1005.28
2017-06-19T02:28:44.667Z,1005.26
2017-06-19T02:29:47.401Z,1005.24
2017-06-19T02:30:50.106Z,1005.28
2017-06-19T02:31:52.785Z,1005.26
2017-06-19T02:32:56.889Z,1005.23
2017-06-19T02:33:59.567Z,1005.21
2017-06-19T02:35:02.087Z,1005.22
2017-06-19T02:36:04.757Z,1005.19
2017-06-19T02:37:08.229Z,1005.15
2017-06-19T02:38:10.872Z,1005.12
2017-06-19T02:39:13.870Z,1005.11
2017-06-19T02:40:16.575Z,1005.10
2017-06-19T02:41:19.448Z,1005.06
2017-06-19T02:42:22.107Z,1005.08
2017-06-19T02:43:24.854Z,1005.05
2017-06-19T02:44:27.534Z,1005.04
2017-06-19T02:45:30.203Z,1005.04
2017-06-19T02:46:32.883Z,1004.99
2017-06-19T02:47:35.545Z,1004.98
2017-06-19T02:48:38.245Z,1004.95
2017-06-19T02:49:40.714Z,1004.93
2017-06-19T02:50:43.377Z,1004.92
2017-06-19T02:51:45.936Z,1004.94
2017-06-19T02:52:48.465Z,1004.86
2017-06-19T02:53:51.292Z,1004.90
2017-06-19T02:54:53.770Z,1004.83
2017-06-19T02:55:56.381Z,1004.84
2017-06-19T02:56:59.120Z,1004.78
2017-06-19T02:58:01.800Z,1004.82
2017-06-19T02:59:04.367Z,1004.83
2017-06-19T03:00:06.986Z,1004.76
2017-06-19T03:01:11.946Z,1004.76
2017-06-19T03:02:17.672Z,1004.80
2017-06-19T03:03:20.164Z,1004.80
2017-06-19T03:04:22.749Z,1004.77
2017-06-19T03:05:25.405Z,1004.75
2017-06-19T03:06:27.950Z,1004.78
2017-06-19T03:07:30.739Z,1004.74
2017-06-19T03:08:33.379Z,1004.75
2017-06-19T03:09:36.026Z,1004.74
2017-06-19T03:10:38.648Z,1004.76
2017-06-19T03:11:41.228Z,1004.74
2017-06-19T03:12:43.921Z,1004.72
2017-06-19T03:13:46.592Z,1004.73
2017-06-19T03:14:49.268Z,1004.72
2017-06-19T03:15:51.948Z,1004.72
2017-06-19T03:16:54.555Z,1004.69
2017-06-19T03:17:57.233Z,1004.67
2017-06-19T03:18:59.768Z,1004.70
2017-06-19T03:20:02.462Z,1004.66
2017-06-19T03:21:05.026Z,1004.69
2017-06-19T03:22:07.816Z,1004.71
2017-06-19T03:23:10.485Z,1004.65
2017-06-19T03:24:13.162Z,1004.66
2017-06-19T03:25:15.744Z,1004.62
2017-06-19T03:26:18.353Z,1004.61
2017-06-19T03:27:20.893Z,1004.61
2017-06-19T03:28:23.470Z,1004.58
2017-06-19T03:29:26.079Z,1004.59
2017-06-19T03:30:28.770Z,1004.55
2017-06-19T03:31:31.251Z,1004.54
2017-06-19T03:32:33.734Z,1004.50
2017-06-19T03:33:36.355Z,1004.53
2017-06-19T03:34:38.926Z,1004.49
2017-06-19T03:35:41.505Z,1004.48
2017-06-19T03:36:44.083Z,1004.51
2017-06-19T03:37:46.719Z,1004.52
2017-06-19T03:38:49.449Z,1004.48
2017-06-19T03:39:51.954Z,1004.48
2017-06-19T03:40:54.561Z,1004.47
2017-06-19T03:41:57.234Z,1004.50
2017-06-19T03:42:59.997Z,1004.45
2017-06-19T03:44:02.680Z,1004.47
2017-06-19T03:45:05.373Z,1004.45
2017-06-19T03:46:08.025Z,1004.49
2017-06-19T03:47:10.606Z,1004.47
2017-06-19T03:48:13.309Z,1004.44
2017-06-19T03:49:15.890Z,1004.39
2017-06-19T03:50:18.517Z,1004.36
2017-06-19T03:51:21.030Z,1004.39
2017-06-19T03:52:23.611Z,1004.40
2017-06-19T03:53:26.223Z,1004.39
2017-06-19T03:54:28.764Z,1004.36
2017-06-19T03:55:31.403Z,1004.38
2017-06-19T03:56:33.939Z,1004.30
2017-06-19T03:57:36.475Z,1004.28
2017-06-19T03:58:38.998Z,1004.26
2017-06-19T03:59:41.697Z,1004.26
2017-06-19T04:00:47.989Z,1004.23
2017-06-19T04:01:54.121Z,1004.23
2017-06-19T04:02:56.617Z,1004.25
2017-06-19T04:03:59.276Z,1004.20
2017-06-19T04:05:01.946Z,1004.22
2017-06-19T04:06:04.625Z,1004.17
2017-06-19T04:07:07.305Z,1004.23
2017-06-19T04:08:09.977Z,1004.20
2017-06-19T04:09:12.700Z,1004.19
2017-06-19T04:10:15.305Z,1004.15
2017-06-19T04:11:17.880Z,1004.16
2017-06-19T04:12:20.450Z,1004.13
2017-06-19T04:13:23.027Z,1004.15
2017-06-19T04:14:25.600Z,1004.13
2017-06-19T04:15:28.391Z,1004.15
2017-06-19T04:16:30.968Z,1004.16
2017-06-19T04:17:33.539Z,1004.09
2017-06-19T04:18:36.226Z,1004.09
2017-06-19T04:19:38.797Z,1004.10
2017-06-19T04:20:41.453Z,1004.07
2017-06-19T04:21:44.023Z,1004.08
2017-06-19T04:26:47.250Z,1004.00
2017-06-19T23:39:52.434Z,1004.91
2017-06-19T23:40:55.068Z,1004.91
2017-06-19T23:41:57.546Z,1004.91
2017-06-19T23:43:00.033Z,1004.90
2017-06-19T23:44:02.564Z,1004.94
2017-06-19T23:45:05.179Z,1004.99
2017-06-19T23:46:08.138Z,1005.02
2017-06-19T23:47:10.829Z,1005.03
2017-06-19T23:48:13.518Z,1005.00
2017-06-19T23:49:16.197Z,1005.00
2017-06-19T23:50:18.749Z,1005.01
2017-06-19T23:51:21.306Z,1005.01
2017-06-19T23:52:23.845Z,1004.99
2017-06-19T23:53:26.519Z,1004.99
2017-06-19T23:54:29.049Z,1004.97
2017-06-19T23:55:31.609Z,1005.02
2017-06-19T23:56:34.110Z,1005.00
2017-06-19T23:57:36.757Z,1005.06
2017-06-19T23:58:39.485Z,1005.10
2017-06-19T23:59:42.206Z,1005.08
